PWSweather.com
Personal Weather Stations
Station Observations
WD4JKH
Forsyth, GA 31029

Forsyth, GA 31029

Lat: 33.033225, Lon: -83.927995

Elevation: 709

Station Type: Davis Vantage VUE

High Low Average
Temperature 91.0°F32.8°C 75.4°F24.1°C 81.4°F27.4°C
Dew Point 76.9°F24.9°C 73.1°F22.8°C 74.8°F23.8°C
Winds 5.3 mph 8.5 kmh Calm Calm 1.0 mph S1.6 kmh S
Wind Gusts 13.0 mph20.9 kmh -- 5.0 mph8.0 kmh
Humidity 96% 59% 81%
Pressure 29.98 in1015.2 mb 29.85 in1010.8 mb -
Precipitation 0.00 in0.0 mm - -
Hour Temp Dew Point Humidity Winds Wind Gusts Pressure Precip Precip Rate Daily Precip Total
12:03 AM 79.2°F26.2°C 75.0°F23.9°C 87% 1.1 mph ESE1.8 kmh ESE 2.0 mph3.2 kmh 29.95 in1014.2 mb 0.00 in0.0 mm 0.00 in0.0 mm 0.00 in0.0 mm
12:08 AM 79.1°F26.2°C 74.9°F23.8°C 87% 1.6 mph E2.6 kmh E 3.0 mph4.8 kmh 29.95 in1014.2 mb 0.00 in0.0 mm 0.00 in0.0 mm 0.00 in0.0 mm
12:13 AM 78.9°F26.1°C 75.1°F23.9°C 88% 1.6 mph ESE2.6 kmh ESE 3.0 mph4.8 kmh 29.96 in1014.6 mb 0.00 in0.0 mm 0.00 in0.0 mm 0.00 in0.0 mm
12:18 AM 78.8°F26.0°C 75.0°F23.9°C 88% 1.8 mph SE2.9 kmh SE 4.0 mph6.4 kmh 29.95 in1014.2 mb 0.00 in0.0 mm 0.00 in0.0 mm 0.00 in0.0 mm
12:23 AM 78.7°F25.9°C 74.8°F23.8°C 88% 1.3 mph ESE2.1 kmh ESE 4.0 mph6.4 kmh 29.95 in1014.2 mb 0.00 in0.0 mm 0.00 in0.0 mm 0.00 in0.0 mm
12:28 AM 78.6°F25.9°C 74.8°F23.8°C 88% 2.6 mph ESE4.2 kmh ESE 5.0 mph8.0 kmh 29.96 in1014.6 mb 0.00 in0.0 mm 0.00 in0.0 mm 0.00 in0.0 mm
12:33 AM 78.5°F25.8°C 74.6°F23.7°C 88% 1.5 mph SE2.4 kmh SE 5.0 mph8.0 kmh 29.96 in1014.6 mb 0.00 in0.0 mm 0.00 in0.0 mm 0.00 in0.0 mm
12:38 AM 78.4°F25.8°C 74.9°F23.8°C 89% 1.9 mph SE3.1 kmh SE 5.0 mph8.0 kmh 29.96 in1014.6 mb 0.00 in0.0 mm 0.00 in0.0 mm 0.00 in0.0 mm
12:43 AM 78.3°F25.7°C 74.8°F23.8°C 89% 1.5 mph SE2.4 kmh SE 5.0 mph8.0 kmh 29.95 in1014.2 mb 0.00 in0.0 mm 0.00 in0.0 mm 0.00 in0.0 mm
12:48 AM 78.2°F25.7°C 74.7°F23.7°C 89% 1.4 mph SE2.3 kmh SE 4.0 mph6.4 kmh 29.95 in1014.2 mb 0.00 in0.0 mm 0.00 in0.0 mm 0.00 in0.0 mm
12:53 AM 78.1°F25.6°C 74.6°F23.7°C 89% 1.7 mph SE2.7 kmh SE 4.0 mph6.4 kmh 29.95 in1014.2 mb 0.00 in0.0 mm 0.00 in0.0 mm 0.00 in0.0 mm
12:58 AM 78.1°F25.6°C 74.6°F23.7°C 89% 1.3 mph SE2.1 kmh SE 4.0 mph6.4 kmh 29.95 in1014.2 mb 0.00 in0.0 mm 0.00 in0.0 mm 0.00 in0.0 mm
01:03 AM 78.2°F25.7°C 74.7°F23.7°C 89% 2.1 mph SE3.4 kmh SE 4.0 mph6.4 kmh 29.95 in1014.2 mb 0.00 in0.0 mm 0.00 in0.0 mm 0.00 in0.0 mm
01:08 AM 78.2°F25.7°C 74.7°F23.7°C 89% 1.1 mph SE1.8 kmh SE 4.0 mph6.4 kmh 29.95 in1014.2 mb 0.00 in0.0 mm 0.00 in0.0 mm 0.00 in0.0 mm
01:13 AM 78.2°F25.7°C 75.0°F23.9°C 90% 1.3 mph ESE2.1 kmh ESE 3.0 mph4.8 kmh 29.96 in1014.6 mb 0.00 in0.0 mm 0.00 in0.0 mm 0.00 in0.0 mm
01:18 AM 78.2°F25.7°C 74.7°F23.7°C 89% 1.5 mph SE2.4 kmh SE 3.0 mph4.8 kmh 29.96 in1014.6 mb 0.00 in0.0 mm 0.00 in0.0 mm 0.00 in0.0 mm
01:23 AM 78.3°F25.7°C 74.8°F23.8°C 89% 1.0 mph SSE1.6 kmh SSE 3.0 mph4.8 kmh 29.96 in1014.6 mb 0.00 in0.0 mm 0.00 in0.0 mm 0.00 in0.0 mm
01:28 AM 78.3°F25.7°C 74.8°F23.8°C 89% 1.5 mph SE2.4 kmh SE 3.0 mph4.8 kmh 29.96 in1014.6 mb 0.00 in0.0 mm 0.00 in0.0 mm 0.00 in0.0 mm
01:33 AM 78.3°F25.7°C 74.8°F23.8°C 89% 1.0 mph SE1.6 kmh SE 3.0 mph4.8 kmh 29.96 in1014.6 mb 0.00 in0.0 mm 0.00 in0.0 mm 0.00 in0.0 mm
01:38 AM 78.2°F25.7°C 74.7°F23.7°C 89% Calm Calm 3.0 mph4.8 kmh 29.96 in1014.6 mb 0.00 in0.0 mm 0.00 in0.0 mm 0.00 in0.0 mm
01:43 AM 78.1°F25.6°C 74.9°F23.8°C 90% Calm Calm 3.0 mph4.8 kmh 29.96 in1014.6 mb 0.00 in0.0 mm 0.00 in0.0 mm 0.00 in0.0 mm
01:48 AM 77.9°F25.5°C 74.7°F23.7°C 90% 1.0 mph SE1.6 kmh SE 2.0 mph3.2 kmh 29.95 in1014.2 mb 0.00 in0.0 mm 0.00 in0.0 mm 0.00 in0.0 mm
01:53 AM 77.8°F25.4°C 74.6°F23.7°C 90% Calm Calm 1.0 mph1.6 kmh 29.95 in1014.2 mb 0.00 in0.0 mm 0.00 in0.0 mm 0.00 in0.0 mm
01:58 AM 77.7°F25.4°C 74.8°F23.8°C 91% Calm Calm 1.0 mph1.6 kmh 29.95 in1014.2 mb 0.00 in0.0 mm 0.00 in0.0 mm 0.00 in0.0 mm
02:03 AM 77.5°F25.3°C 74.7°F23.7°C 91% Calm Calm 1.0 mph1.6 kmh 29.95 in1014.2 mb 0.00 in0.0 mm 0.00 in0.0 mm 0.00 in0.0 mm
02:08 AM 77.3°F25.2°C 74.5°F23.6°C 91% Calm Calm 1.0 mph1.6 kmh 29.95 in1014.2 mb 0.00 in0.0 mm 0.00 in0.0 mm 0.00 in0.0 mm
02:13 AM 77.2°F25.1°C 74.4°F23.6°C 91% Calm Calm 1.0 mph1.6 kmh 29.95 in1014.2 mb 0.00 in0.0 mm 0.00 in0.0 mm 0.00 in0.0 mm
02:18 AM 77.0°F25.0°C 74.5°F23.6°C 92% Calm Calm 1.0 mph1.6 kmh 29.96 in1014.6 mb 0.00 in0.0 mm 0.00 in0.0 mm 0.00 in0.0 mm
02:23 AM 76.9°F24.9°C 74.4°F23.6°C 92% Calm Calm -- 29.95 in1014.2 mb 0.00 in0.0 mm 0.00 in0.0 mm 0.00 in0.0 mm
02:28 AM 76.8°F24.9°C 74.3°F23.5°C 92% Calm Calm -- 29.95 in1014.2 mb 0.00 in0.0 mm 0.00 in0.0 mm 0.00 in0.0 mm
02:33 AM 76.6°F24.8°C 74.4°F23.6°C 93% Calm Calm -- 29.95 in1014.2 mb 0.00 in0.0 mm 0.00 in0.0 mm 0.00 in0.0 mm
02:38 AM 76.6°F24.8°C 74.4°F23.6°C 93% 1.0 mph SE1.6 kmh SE 1.0 mph1.6 kmh 29.94 in1013.9 mb 0.00 in0.0 mm 0.00 in0.0 mm 0.00 in0.0 mm
02:43 AM 76.5°F24.7°C 74.3°F23.5°C 93% Calm Calm 1.0 mph1.6 kmh 29.95 in1014.2 mb 0.00 in0.0 mm 0.00 in0.0 mm 0.00 in0.0 mm
02:48 AM 76.4°F24.7°C 74.2°F23.4°C 93% 1.0 mph SW1.6 kmh SW 1.0 mph1.6 kmh 29.95 in1014.2 mb 0.00 in0.0 mm 0.00 in0.0 mm 0.00 in0.0 mm
02:53 AM 76.4°F24.7°C 74.2°F23.4°C 93% Calm Calm 1.0 mph1.6 kmh 29.95 in1014.2 mb 0.00 in0.0 mm 0.00 in0.0 mm 0.00 in0.0 mm
02:58 AM 76.3°F24.6°C 74.4°F23.6°C 94% Calm Calm 1.0 mph1.6 kmh 29.94 in1013.9 mb 0.00 in0.0 mm 0.00 in0.0 mm 0.00 in0.0 mm
03:03 AM 76.3°F24.6°C 74.4°F23.6°C 94% Calm Calm 1.0 mph1.6 kmh 29.94 in1013.9 mb 0.00 in0.0 mm 0.00 in0.0 mm 0.00 in0.0 mm
03:08 AM 76.4°F24.7°C 74.5°F23.6°C 94% Calm Calm 1.0 mph1.6 kmh 29.94 in1013.9 mb 0.00 in0.0 mm 0.00 in0.0 mm 0.00 in0.0 mm
03:13 AM 76.4°F24.7°C 74.5°F23.6°C 94% Calm Calm 1.0 mph1.6 kmh 29.94 in1013.9 mb 0.00 in0.0 mm 0.00 in0.0 mm 0.00 in0.0 mm
03:18 AM 76.4°F24.7°C 74.5°F23.6°C 94% Calm Calm 1.0 mph1.6 kmh 29.94 in1013.9 mb 0.00 in0.0 mm 0.00 in0.0 mm 0.00 in0.0 mm
03:23 AM 76.4°F24.7°C 74.5°F23.6°C 94% 1.0 mph ESE1.6 kmh ESE 1.0 mph1.6 kmh 29.94 in1013.9 mb 0.00 in0.0 mm 0.00 in0.0 mm 0.00 in0.0 mm
03:28 AM 76.3°F24.6°C 74.4°F23.6°C 94% 1.0 mph SE1.6 kmh SE 1.0 mph1.6 kmh 29.94 in1013.9 mb 0.00 in0.0 mm 0.00 in0.0 mm 0.00 in0.0 mm
03:33 AM 76.3°F24.6°C 74.4°F23.6°C 94% 1.5 mph SE2.4 kmh SE 2.0 mph3.2 kmh 29.93 in1013.5 mb 0.00 in0.0 mm 0.00 in0.0 mm 0.00 in0.0 mm
03:38 AM 76.2°F24.6°C 74.3°F23.5°C 94% 1.0 mph SE1.6 kmh SE 2.0 mph3.2 kmh 29.93 in1013.5 mb 0.00 in0.0 mm 0.00 in0.0 mm 0.00 in0.0 mm
03:43 AM 76.0°F24.4°C 74.1°F23.4°C 94% 1.0 mph SE1.6 kmh SE 2.0 mph3.2 kmh 29.93 in1013.5 mb 0.00 in0.0 mm 0.00 in0.0 mm 0.00 in0.0 mm
03:48 AM 75.9°F24.4°C 74.0°F23.3°C 94% Calm Calm 2.0 mph3.2 kmh 29.93 in1013.5 mb 0.00 in0.0 mm 0.00 in0.0 mm 0.00 in0.0 mm
03:53 AM 75.9°F24.4°C 74.0°F23.3°C 94% 1.0 mph SE1.6 kmh SE 1.0 mph1.6 kmh 29.93 in1013.5 mb 0.00 in0.0 mm 0.00 in0.0 mm 0.00 in0.0 mm
03:58 AM 75.8°F24.3°C 74.2°F23.4°C 95% 1.0 mph SE1.6 kmh SE 1.0 mph1.6 kmh 29.93 in1013.5 mb 0.00 in0.0 mm 0.00 in0.0 mm 0.00 in0.0 mm
04:03 AM 75.8°F24.3°C 74.2°F23.4°C 95% Calm Calm 1.0 mph1.6 kmh 29.93 in1013.5 mb 0.00 in0.0 mm 0.00 in0.0 mm 0.00 in0.0 mm
04:08 AM 75.8°F24.3°C 74.2°F23.4°C 95% 1.0 mph ESE1.6 kmh ESE 1.0 mph1.6 kmh 29.92 in1013.2 mb 0.00 in0.0 mm 0.00 in0.0 mm 0.00 in0.0 mm
04:13 AM 75.8°F24.3°C 74.2°F23.4°C 95% 1.4 mph SE2.3 kmh SE 3.0 mph4.8 kmh 29.92 in1013.2 mb 0.00 in0.0 mm 0.00 in0.0 mm 0.00 in0.0 mm
04:18 AM 75.8°F24.3°C 74.2°F23.4°C 95% 1.0 mph S1.6 kmh S 3.0 mph4.8 kmh 29.92 in1013.2 mb 0.00 in0.0 mm 0.00 in0.0 mm 0.00 in0.0 mm
04:23 AM 75.8°F24.3°C 74.2°F23.4°C 95% Calm Calm 3.0 mph4.8 kmh 29.92 in1013.2 mb 0.00 in0.0 mm 0.00 in0.0 mm 0.00 in0.0 mm
04:28 AM 75.8°F24.3°C 74.2°F23.4°C 95% 1.0 mph SE1.6 kmh SE 3.0 mph4.8 kmh 29.93 in1013.5 mb 0.00 in0.0 mm 0.00 in0.0 mm 0.00 in0.0 mm
04:33 AM 75.9°F24.4°C 74.4°F23.6°C 95% 1.0 mph SE1.6 kmh SE 3.0 mph4.8 kmh 29.93 in1013.5 mb 0.00 in0.0 mm 0.00 in0.0 mm 0.00 in0.0 mm
04:38 AM 76.0°F24.4°C 74.5°F23.6°C 95% 1.5 mph ESE2.4 kmh ESE 2.0 mph3.2 kmh 29.93 in1013.5 mb 0.00 in0.0 mm 0.00 in0.0 mm 0.00 in0.0 mm
04:43 AM 76.0°F24.4°C 74.4°F23.6°C 95% Calm Calm 2.0 mph3.2 kmh 29.93 in1013.5 mb 0.00 in0.0 mm 0.00 in0.0 mm 0.00 in0.0 mm
04:48 AM 76.1°F24.5°C 74.5°F23.6°C 95% 1.0 mph SE1.6 kmh SE 2.0 mph3.2 kmh 29.93 in1013.5 mb 0.00 in0.0 mm 0.00 in0.0 mm 0.00 in0.0 mm
04:53 AM 76.1°F24.5°C 74.5°F23.6°C 95% 1.0 mph SE1.6 kmh SE 2.0 mph3.2 kmh 29.92 in1013.2 mb 0.00 in0.0 mm 0.00 in0.0 mm 0.00 in0.0 mm
04:58 AM 76.1°F24.5°C 74.5°F23.6°C 95% 1.2 mph SE1.9 kmh SE 2.0 mph3.2 kmh 29.92 in1013.2 mb 0.00 in0.0 mm 0.00 in0.0 mm 0.00 in0.0 mm
05:03 AM 76.1°F24.5°C 74.5°F23.6°C 95% 1.1 mph SE1.8 kmh SE 2.0 mph3.2 kmh 29.92 in1013.2 mb 0.00 in0.0 mm 0.00 in0.0 mm 0.00 in0.0 mm
05:08 AM 76.1°F24.5°C 74.5°F23.6°C 95% 1.0 mph SE1.6 kmh SE 2.0 mph3.2 kmh 29.93 in1013.5 mb 0.00 in0.0 mm 0.00 in0.0 mm 0.00 in0.0 mm
05:13 AM 76.1°F24.5°C 74.5°F23.6°C 95% 1.0 mph SSE1.6 kmh SSE 2.0 mph3.2 kmh 29.93 in1013.5 mb 0.00 in0.0 mm 0.00 in0.0 mm 0.00 in0.0 mm
05:18 AM 76.0°F24.4°C 74.5°F23.6°C 95% Calm Calm 2.0 mph3.2 kmh 29.92 in1013.2 mb 0.00 in0.0 mm 0.00 in0.0 mm 0.00 in0.0 mm
05:23 AM 76.0°F24.4°C 74.5°F23.6°C 95% 1.0 mph SE1.6 kmh SE 1.0 mph1.6 kmh 29.92 in1013.2 mb 0.00 in0.0 mm 0.00 in0.0 mm 0.00 in0.0 mm
05:28 AM 75.9°F24.4°C 74.4°F23.6°C 95% Calm Calm 1.0 mph1.6 kmh 29.93 in1013.5 mb 0.00 in0.0 mm 0.00 in0.0 mm 0.00 in0.0 mm
05:33 AM 75.9°F24.4°C 74.3°F23.5°C 95% Calm Calm 1.0 mph1.6 kmh 29.93 in1013.5 mb 0.00 in0.0 mm 0.00 in0.0 mm 0.00 in0.0 mm
05:38 AM 75.8°F24.3°C 74.2°F23.4°C 95% 1.0 mph SSE1.6 kmh SSE 1.0 mph1.6 kmh 29.93 in1013.5 mb 0.00 in0.0 mm 0.00 in0.0 mm 0.00 in0.0 mm
05:43 AM 75.8°F24.3°C 74.2°F23.4°C 95% 1.4 mph S2.3 kmh S 2.0 mph3.2 kmh 29.93 in1013.5 mb 0.00 in0.0 mm 0.00 in0.0 mm 0.00 in0.0 mm
05:47 AM 75.7°F24.3°C 74.1°F23.4°C 95% Calm Calm 2.0 mph3.2 kmh 29.93 in1013.5 mb 0.00 in0.0 mm 0.00 in0.0 mm 0.00 in0.0 mm
05:52 AM 75.8°F24.3°C 74.6°F23.7°C 96% 1.0 mph S1.6 kmh S 2.0 mph3.2 kmh 29.93 in1013.5 mb 0.00 in0.0 mm 0.00 in0.0 mm 0.00 in0.0 mm
05:57 AM 75.8°F24.3°C 74.6°F23.7°C 96% 1.0 mph SE1.6 kmh SE 2.0 mph3.2 kmh 29.93 in1013.5 mb 0.00 in0.0 mm 0.00 in0.0 mm 0.00 in0.0 mm
06:02 AM 75.7°F24.3°C 74.5°F23.6°C 96% 1.2 mph S1.9 kmh S 2.0 mph3.2 kmh 29.93 in1013.5 mb 0.00 in0.0 mm 0.00 in0.0 mm 0.00 in0.0 mm
06:07 AM 75.7°F24.3°C 74.5°F23.6°C 96% 1.3 mph S2.1 kmh S 2.0 mph3.2 kmh 29.93 in1013.5 mb 0.00 in0.0 mm 0.00 in0.0 mm 0.00 in0.0 mm
06:12 AM 75.6°F24.2°C 74.4°F23.6°C 96% 1.5 mph SW2.4 kmh SW 3.0 mph4.8 kmh 29.94 in1013.9 mb 0.00 in0.0 mm 0.00 in0.0 mm 0.00 in0.0 mm
06:17 AM 75.5°F24.2°C 74.3°F23.5°C 96% 1.3 mph SW2.1 kmh SW 3.0 mph4.8 kmh 29.94 in1013.9 mb 0.00 in0.0 mm 0.00 in0.0 mm 0.00 in0.0 mm
06:22 AM 75.5°F24.2°C 74.3°F23.5°C 96% 2.5 mph SW4.0 kmh SW 5.0 mph8.0 kmh 29.94 in1013.9 mb 0.00 in0.0 mm 0.00 in0.0 mm 0.00 in0.0 mm
06:27 AM 75.5°F24.2°C 74.3°F23.5°C 96% 1.0 mph WSW1.6 kmh WSW 5.0 mph8.0 kmh 29.94 in1013.9 mb 0.00 in0.0 mm 0.00 in0.0 mm 0.00 in0.0 mm
06:32 AM 75.4°F24.1°C 74.2°F23.4°C 96% 1.6 mph SSW2.6 kmh SSW 5.0 mph8.0 kmh 29.94 in1013.9 mb 0.00 in0.0 mm 0.00 in0.0 mm 0.00 in0.0 mm
06:37 AM 75.4°F24.1°C 74.2°F23.4°C 96% 1.7 mph SW2.7 kmh SW 5.0 mph8.0 kmh 29.94 in1013.9 mb 0.00 in0.0 mm 0.00 in0.0 mm 0.00 in0.0 mm
06:42 AM 75.4°F24.1°C 74.2°F23.4°C 96% Calm Calm 3.0 mph4.8 kmh 29.94 in1013.9 mb 0.00 in0.0 mm 0.00 in0.0 mm 0.00 in0.0 mm
06:47 AM 75.4°F24.1°C 74.2°F23.4°C 96% 1.5 mph SSW2.4 kmh SSW 3.0 mph4.8 kmh 29.94 in1013.9 mb 0.00 in0.0 mm 0.00 in0.0 mm 0.00 in0.0 mm
06:52 AM 75.4°F24.1°C 74.2°F23.4°C 96% 1.0 mph SW1.6 kmh SW 3.0 mph4.8 kmh 29.95 in1014.2 mb 0.00 in0.0 mm 0.00 in0.0 mm 0.00 in0.0 mm
06:57 AM 75.5°F24.2°C 74.3°F23.5°C 96% 1.8 mph SSW2.9 kmh SSW 4.0 mph6.4 kmh 29.95 in1014.2 mb 0.00 in0.0 mm 0.00 in0.0 mm 0.00 in0.0 mm
07:02 AM 75.5°F24.2°C 74.3°F23.5°C 96% 1.0 mph SW1.6 kmh SW 4.0 mph6.4 kmh 29.95 in1014.2 mb 0.00 in0.0 mm 0.00 in0.0 mm 0.00 in0.0 mm
07:07 AM 75.5°F24.2°C 74.3°F23.5°C 96% Calm Calm 4.0 mph6.4 kmh 29.95 in1014.2 mb 0.00 in0.0 mm 0.00 in0.0 mm 0.00 in0.0 mm
07:12 AM 75.6°F24.2°C 74.4°F23.6°C 96% 1.0 mph S1.6 kmh S 4.0 mph6.4 kmh 29.95 in1014.2 mb 0.00 in0.0 mm 0.00 in0.0 mm 0.00 in0.0 mm
07:17 AM 75.6°F24.2°C 74.4°F23.6°C 96% 1.0 mph SSE1.6 kmh SSE 2.0 mph3.2 kmh 29.95 in1014.2 mb 0.00 in0.0 mm 0.00 in0.0 mm 0.00 in0.0 mm
07:22 AM 75.6°F24.2°C 74.4°F23.6°C 96% 1.4 mph SSW2.3 kmh SSW 3.0 mph4.8 kmh 29.95 in1014.2 mb 0.00 in0.0 mm 0.00 in0.0 mm 0.00 in0.0 mm
07:27 AM 75.7°F24.3°C 74.5°F23.6°C 96% 1.5 mph SW2.4 kmh SW 3.0 mph4.8 kmh 29.96 in1014.6 mb 0.00 in0.0 mm 0.00 in0.0 mm 0.00 in0.0 mm
07:32 AM 75.7°F24.3°C 74.5°F23.6°C 96% 1.1 mph SSW1.8 kmh SSW 3.0 mph4.8 kmh 29.95 in1014.2 mb 0.00 in0.0 mm 0.00 in0.0 mm 0.00 in0.0 mm
07:37 AM 75.8°F24.3°C 74.6°F23.7°C 96% 1.0 mph SSW1.6 kmh SSW 3.0 mph4.8 kmh 29.96 in1014.6 mb 0.00 in0.0 mm 0.00 in0.0 mm 0.00 in0.0 mm
07:42 AM 75.9°F24.4°C 74.7°F23.7°C 96% Calm Calm 2.0 mph3.2 kmh 29.96 in1014.6 mb 0.00 in0.0 mm 0.00 in0.0 mm 0.00 in0.0 mm
07:47 AM 75.9°F24.4°C 74.7°F23.7°C 96% 1.0 mph SE1.6 kmh SE 2.0 mph3.2 kmh 29.96 in1014.6 mb 0.00 in0.0 mm 0.00 in0.0 mm 0.00 in0.0 mm
07:52 AM 76.0°F24.4°C 74.8°F23.8°C 96% 2.0 mph SSW3.2 kmh SSW 3.0 mph4.8 kmh 29.97 in1014.9 mb 0.00 in0.0 mm 0.00 in0.0 mm 0.00 in0.0 mm
07:57 AM 76.0°F24.4°C 74.7°F23.7°C 96% Calm Calm 3.0 mph4.8 kmh 29.97 in1014.9 mb 0.00 in0.0 mm 0.00 in0.0 mm 0.00 in0.0 mm
08:02 AM 76.1°F24.5°C 74.8°F23.8°C 96% 1.3 mph SE2.1 kmh SE 3.0 mph4.8 kmh 29.96 in1014.6 mb 0.00 in0.0 mm 0.00 in0.0 mm 0.00 in0.0 mm
08:07 AM 76.1°F24.5°C 74.8°F23.8°C 96% 1.5 mph SW2.4 kmh SW 3.0 mph4.8 kmh 29.96 in1014.6 mb 0.00 in0.0 mm 0.00 in0.0 mm 0.00 in0.0 mm
08:12 AM 76.2°F24.6°C 74.9°F23.8°C 96% 1.5 mph SW2.4 kmh SW 3.0 mph4.8 kmh 29.97 in1014.9 mb 0.00 in0.0 mm 0.00 in0.0 mm 0.00 in0.0 mm
08:17 AM 76.2°F24.6°C 74.9°F23.8°C 96% 1.0 mph SW1.6 kmh SW 3.0 mph4.8 kmh 29.97 in1014.9 mb 0.00 in0.0 mm 0.00 in0.0 mm 0.00 in0.0 mm
08:22 AM 76.3°F24.6°C 74.8°F23.8°C 95% Calm Calm 3.0 mph4.8 kmh 29.97 in1014.9 mb 0.00 in0.0 mm 0.00 in0.0 mm 0.00 in0.0 mm
08:27 AM 76.4°F24.7°C 74.9°F23.8°C 95% 1.0 mph S1.6 kmh S 3.0 mph4.8 kmh 29.97 in1014.9 mb 0.00 in0.0 mm 0.00 in0.0 mm 0.00 in0.0 mm
08:32 AM 76.5°F24.7°C 74.9°F23.8°C 95% 1.1 mph S1.8 kmh S 2.0 mph3.2 kmh 29.97 in1014.9 mb 0.00 in0.0 mm 0.00 in0.0 mm 0.00 in0.0 mm
08:37 AM 76.6°F24.8°C 75.0°F23.9°C 95% 1.0 mph SW1.6 kmh SW 2.0 mph3.2 kmh 29.97 in1014.9 mb 0.00 in0.0 mm 0.00 in0.0 mm 0.00 in0.0 mm
08:42 AM 76.6°F24.8°C 75.0°F23.9°C 95% 1.0 mph SE1.6 kmh SE 2.0 mph3.2 kmh 29.97 in1014.9 mb 0.00 in0.0 mm 0.00 in0.0 mm 0.00 in0.0 mm
08:47 AM 76.6°F24.8°C 75.0°F23.9°C 95% 1.3 mph SW2.1 kmh SW 2.0 mph3.2 kmh 29.97 in1014.9 mb 0.00 in0.0 mm 0.00 in0.0 mm 0.00 in0.0 mm
08:52 AM 76.9°F24.9°C 75.3°F24.1°C 95% 1.0 mph SSW1.6 kmh SSW 2.0 mph3.2 kmh 29.97 in1014.9 mb 0.00 in0.0 mm 0.00 in0.0 mm 0.00 in0.0 mm
08:57 AM 77.1°F25.1°C 75.2°F24.0°C 94% 1.0 mph SSE1.6 kmh SSE 2.0 mph3.2 kmh 29.97 in1014.9 mb 0.00 in0.0 mm 0.00 in0.0 mm 0.00 in0.0 mm
09:02 AM 77.4°F25.2°C 75.5°F24.2°C 94% 1.0 mph SSE1.6 kmh SSE 3.0 mph4.8 kmh 29.97 in1014.9 mb 0.00 in0.0 mm 0.00 in0.0 mm 0.00 in0.0 mm
09:07 AM 77.5°F25.3°C 75.3°F24.1°C 93% 1.5 mph S2.4 kmh S 4.0 mph6.4 kmh 29.97 in1014.9 mb 0.00 in0.0 mm 0.00 in0.0 mm 0.00 in0.0 mm
09:12 AM 77.6°F25.3°C 75.4°F24.1°C 93% 2.0 mph SW3.2 kmh SW 4.0 mph6.4 kmh 29.97 in1014.9 mb 0.00 in0.0 mm 0.00 in0.0 mm 0.00 in0.0 mm
09:17 AM 77.6°F25.3°C 75.1°F23.9°C 92% 1.1 mph SW1.8 kmh SW 4.0 mph6.4 kmh 29.98 in1015.2 mb 0.00 in0.0 mm 0.00 in0.0 mm 0.00 in0.0 mm
09:22 AM 77.6°F25.3°C 75.1°F23.9°C 92% 1.0 mph SSW1.6 kmh SSW 5.0 mph8.0 kmh 29.98 in1015.2 mb 0.00 in0.0 mm 0.00 in0.0 mm 0.00 in0.0 mm
09:27 AM 77.7°F25.4°C 75.2°F24.0°C 92% 1.2 mph SW1.9 kmh SW 5.0 mph8.0 kmh 29.98 in1015.2 mb 0.00 in0.0 mm 0.00 in0.0 mm 0.00 in0.0 mm
09:32 AM 77.9°F25.5°C 75.4°F24.1°C 92% 2.0 mph S3.2 kmh S 5.0 mph8.0 kmh 29.98 in1015.2 mb 0.00 in0.0 mm 0.00 in0.0 mm 0.00 in0.0 mm
09:37 AM 78.0°F25.6°C 75.5°F24.2°C 92% 1.0 mph SE1.6 kmh SE 4.0 mph6.4 kmh 29.97 in1014.9 mb 0.00 in0.0 mm 0.00 in0.0 mm 0.00 in0.0 mm
09:42 AM 78.1°F25.6°C 75.2°F24.0°C 91% 1.1 mph S1.8 kmh S 5.0 mph8.0 kmh 29.98 in1015.2 mb 0.00 in0.0 mm 0.00 in0.0 mm 0.00 in0.0 mm
09:47 AM 78.5°F25.8°C 75.6°F24.2°C 91% 1.4 mph S2.3 kmh S 5.0 mph8.0 kmh 29.98 in1015.2 mb 0.00 in0.0 mm 0.00 in0.0 mm 0.00 in0.0 mm
09:52 AM 79.0°F26.1°C 75.8°F24.3°C 90% 3.0 mph S4.8 kmh S 5.0 mph8.0 kmh 29.98 in1015.2 mb 0.00 in0.0 mm 0.00 in0.0 mm 0.00 in0.0 mm
09:57 AM 79.6°F26.4°C 76.1°F24.5°C 89% 1.5 mph SE2.4 kmh SE 5.0 mph8.0 kmh 29.97 in1014.9 mb 0.00 in0.0 mm 0.00 in0.0 mm 0.00 in0.0 mm
10:02 AM 80.4°F26.9°C 76.2°F24.6°C 87% 1.0 mph SSW1.6 kmh SSW 5.0 mph8.0 kmh 29.97 in1014.9 mb 0.00 in0.0 mm 0.00 in0.0 mm 0.00 in0.0 mm
10:07 AM 80.7°F27.1°C 75.5°F24.2°C 84% 1.8 mph SW2.9 kmh SW 5.0 mph8.0 kmh 29.97 in1014.9 mb 0.00 in0.0 mm 0.00 in0.0 mm 0.00 in0.0 mm
10:12 AM 80.3°F26.8°C 75.1°F23.9°C 84% 2.1 mph SW3.4 kmh SW 7.0 mph11.3 kmh 29.98 in1015.2 mb 0.00 in0.0 mm 0.00 in0.0 mm 0.00 in0.0 mm
10:18 AM 80.1°F26.7°C 74.9°F23.8°C 84% 2.1 mph SW3.4 kmh SW 7.0 mph11.3 kmh 29.97 in1014.9 mb 0.00 in0.0 mm 0.00 in0.0 mm 0.00 in0.0 mm
10:23 AM 80.5°F26.9°C 75.3°F24.1°C 84% 1.5 mph SW2.4 kmh SW 7.0 mph11.3 kmh 29.97 in1014.9 mb 0.00 in0.0 mm 0.00 in0.0 mm 0.00 in0.0 mm
10:28 AM 80.9°F27.2°C 75.2°F24.0°C 83% 1.7 mph SW2.7 kmh SW 7.0 mph11.3 kmh 29.97 in1014.9 mb 0.00 in0.0 mm 0.00 in0.0 mm 0.00 in0.0 mm
10:33 AM 81.7°F27.6°C 75.7°F24.3°C 82% 1.8 mph SE2.9 kmh SE 5.0 mph8.0 kmh 29.97 in1014.9 mb 0.00 in0.0 mm 0.00 in0.0 mm 0.00 in0.0 mm
10:38 AM 82.3°F27.9°C 76.0°F24.4°C 81% 1.2 mph S1.9 kmh S 5.0 mph8.0 kmh 29.98 in1015.2 mb 0.00 in0.0 mm 0.00 in0.0 mm 0.00 in0.0 mm
10:43 AM 83.2°F28.4°C 76.0°F24.4°C 79% 1.9 mph ESE3.1 kmh ESE 5.0 mph8.0 kmh 29.97 in1014.9 mb 0.00 in0.0 mm 0.00 in0.0 mm 0.00 in0.0 mm
10:47 AM 83.8°F28.8°C 76.4°F24.7°C 78% 2.0 mph SW3.2 kmh SW 5.0 mph8.0 kmh 29.98 in1015.2 mb 0.00 in0.0 mm 0.00 in0.0 mm 0.00 in0.0 mm
10:52 AM 83.3°F28.5°C 75.3°F24.1°C 77% 2.9 mph WSW4.7 kmh WSW 5.0 mph8.0 kmh 29.97 in1014.9 mb 0.00 in0.0 mm 0.00 in0.0 mm 0.00 in0.0 mm
10:57 AM 83.2°F28.4°C 76.5°F24.7°C 80% 2.5 mph SW4.0 kmh SW 6.0 mph9.7 kmh 29.97 in1014.9 mb 0.00 in0.0 mm 0.00 in0.0 mm 0.00 in0.0 mm
11:02 AM 83.8°F28.8°C 76.0°F24.4°C 77% 2.0 mph WSW3.2 kmh WSW 6.0 mph9.7 kmh 29.97 in1014.9 mb 0.00 in0.0 mm 0.00 in0.0 mm 0.00 in0.0 mm
11:07 AM 83.9°F28.8°C 76.1°F24.5°C 77% 2.0 mph WSW3.2 kmh WSW 7.0 mph11.3 kmh 29.98 in1015.2 mb 0.00 in0.0 mm 0.00 in0.0 mm 0.00 in0.0 mm
11:12 AM 84.2°F29.0°C 76.0°F24.4°C 76% 2.5 mph SW4.0 kmh SW 7.0 mph11.3 kmh 29.97 in1014.9 mb 0.00 in0.0 mm 0.00 in0.0 mm 0.00 in0.0 mm
11:17 AM 84.9°F29.4°C 76.7°F24.8°C 76% 1.0 mph S1.6 kmh S 7.0 mph11.3 kmh 29.98 in1015.2 mb 0.00 in0.0 mm 0.00 in0.0 mm 0.00 in0.0 mm
11:22 AM 85.7°F29.8°C 76.9°F24.9°C 75% 1.0 mph SE1.6 kmh SE 6.0 mph9.7 kmh 29.97 in1014.9 mb 0.00 in0.0 mm 0.00 in0.0 mm 0.00 in0.0 mm
11:27 AM 85.8°F29.9°C 75.6°F24.2°C 71% 2.0 mph SW3.2 kmh SW 6.0 mph9.7 kmh 29.97 in1014.9 mb 0.00 in0.0 mm 0.00 in0.0 mm 0.00 in0.0 mm
11:32 AM 84.7°F29.3°C 75.3°F24.1°C 73% 3.5 mph SW5.6 kmh SW 6.0 mph9.7 kmh 29.97 in1014.9 mb 0.00 in0.0 mm 0.00 in0.0 mm 0.00 in0.0 mm
11:37 AM 84.7°F29.3°C 76.1°F24.5°C 75% 1.0 mph SSW1.6 kmh SSW 7.0 mph11.3 kmh 29.96 in1014.6 mb 0.00 in0.0 mm 0.00 in0.0 mm 0.00 in0.0 mm
11:42 AM 85.7°F29.8°C 76.3°F24.6°C 73% 2.4 mph SW3.9 kmh SW 7.0 mph11.3 kmh 29.96 in1014.6 mb 0.00 in0.0 mm 0.00 in0.0 mm 0.00 in0.0 mm
11:47 AM 85.2°F29.6°C 75.1°F23.9°C 72% 2.3 mph SW3.7 kmh SW 7.0 mph11.3 kmh 29.97 in1014.9 mb 0.00 in0.0 mm 0.00 in0.0 mm 0.00 in0.0 mm
11:52 AM 84.7°F29.3°C 75.7°F24.3°C 74% 1.1 mph SSW1.8 kmh SSW 7.0 mph11.3 kmh 29.96 in1014.6 mb 0.00 in0.0 mm 0.00 in0.0 mm 0.00 in0.0 mm
11:57 AM 84.7°F29.3°C 76.1°F24.5°C 75% 1.7 mph SE2.7 kmh SE 6.0 mph9.7 kmh 29.96 in1014.6 mb 0.00 in0.0 mm 0.00 in0.0 mm 0.00 in0.0 mm
12:02 PM 85.4°F29.7°C 76.4°F24.7°C 74% 1.8 mph S2.9 kmh S 5.0 mph8.0 kmh 29.96 in1014.6 mb 0.00 in0.0 mm 0.00 in0.0 mm 0.00 in0.0 mm
12:07 PM 85.9°F29.9°C 76.1°F24.5°C 72% 2.8 mph SW4.5 kmh SW 6.0 mph9.7 kmh 29.96 in1014.6 mb 0.00 in0.0 mm 0.00 in0.0 mm 0.00 in0.0 mm
12:12 PM 85.4°F29.7°C 75.3°F24.1°C 72% 3.2 mph SW5.1 kmh SW 9.0 mph14.5 kmh 29.96 in1014.6 mb 0.00 in0.0 mm 0.00 in0.0 mm 0.00 in0.0 mm
12:17 PM 84.5°F29.2°C 75.5°F24.2°C 74% 1.6 mph SW2.6 kmh SW 9.0 mph14.5 kmh 29.96 in1014.6 mb 0.00 in0.0 mm 0.00 in0.0 mm 0.00 in0.0 mm
12:22 PM 84.9°F29.4°C 75.5°F24.2°C 73% 2.2 mph SSW3.5 kmh SSW 9.0 mph14.5 kmh 29.96 in1014.6 mb 0.00 in0.0 mm 0.00 in0.0 mm 0.00 in0.0 mm
12:27 PM 84.9°F29.4°C 75.3°F24.1°C 73% Calm Calm 9.0 mph14.5 kmh 29.96 in1014.6 mb 0.00 in0.0 mm 0.00 in0.0 mm 0.00 in0.0 mm
12:32 PM 84.2°F29.0°C 76.0°F24.4°C 76% 1.2 mph SSW1.9 kmh SSW 4.0 mph6.4 kmh 29.96 in1014.6 mb 0.00 in0.0 mm 0.00 in0.0 mm 0.00 in0.0 mm
12:37 PM 83.5°F28.6°C 75.7°F24.3°C 77% 2.9 mph SW4.7 kmh SW 5.0 mph8.0 kmh 29.96 in1014.6 mb 0.00 in0.0 mm 0.00 in0.0 mm 0.00 in0.0 mm
12:42 PM 83.7°F28.7°C 76.3°F24.6°C 78% 1.4 mph SE2.3 kmh SE 5.0 mph8.0 kmh 29.95 in1014.2 mb 0.00 in0.0 mm 0.00 in0.0 mm 0.00 in0.0 mm
12:47 PM 84.6°F29.2°C 76.4°F24.7°C 76% 1.9 mph SSW3.1 kmh SSW 5.0 mph8.0 kmh 29.95 in1014.2 mb 0.00 in0.0 mm 0.00 in0.0 mm 0.00 in0.0 mm
12:52 PM 85.0°F29.4°C 74.8°F23.8°C 71% 1.0 mph W1.6 kmh W 5.0 mph8.0 kmh 29.95 in1014.2 mb 0.00 in0.0 mm 0.00 in0.0 mm 0.00 in0.0 mm
12:57 PM 85.5°F29.7°C 75.4°F24.1°C 72% 1.0 mph SE1.6 kmh SE 4.0 mph6.4 kmh 29.95 in1014.2 mb 0.00 in0.0 mm 0.00 in0.0 mm 0.00 in0.0 mm
01:02 PM 86.2°F30.1°C 76.3°F24.6°C 72% 2.1 mph SE3.4 kmh SE 4.0 mph6.4 kmh 29.95 in1014.2 mb 0.00 in0.0 mm 0.00 in0.0 mm 0.00 in0.0 mm
01:07 PM 86.7°F30.4°C 76.4°F24.7°C 71% 1.2 mph S1.9 kmh S 4.0 mph6.4 kmh 29.94 in1013.9 mb 0.00 in0.0 mm 0.00 in0.0 mm 0.00 in0.0 mm
01:12 PM 87.2°F30.7°C 75.3°F24.1°C 68% 1.3 mph SSW2.1 kmh SSW 4.0 mph6.4 kmh 29.94 in1013.9 mb 0.00 in0.0 mm 0.00 in0.0 mm 0.00 in0.0 mm
01:17 PM 87.4°F30.8°C 75.8°F24.3°C 68% 2.3 mph S3.7 kmh S 4.0 mph6.4 kmh 29.94 in1013.9 mb 0.00 in0.0 mm 0.00 in0.0 mm 0.00 in0.0 mm
01:22 PM 88.0°F31.1°C 76.8°F24.9°C 69% 1.8 mph S2.9 kmh S 5.0 mph8.0 kmh 29.94 in1013.9 mb 0.00 in0.0 mm 0.00 in0.0 mm 0.00 in0.0 mm
01:27 PM 87.7°F30.9°C 75.7°F24.3°C 67% 2.2 mph SE3.5 kmh SE 5.0 mph8.0 kmh 29.94 in1013.9 mb 0.00 in0.0 mm 0.00 in0.0 mm 0.00 in0.0 mm
01:32 PM 87.3°F30.7°C 75.7°F24.3°C 68% 1.6 mph SW2.6 kmh SW 5.0 mph8.0 kmh 29.94 in1013.9 mb 0.00 in0.0 mm 0.00 in0.0 mm 0.00 in0.0 mm
01:37 PM 87.8°F31.0°C 75.8°F24.3°C 67% 1.8 mph SE2.9 kmh SE 5.0 mph8.0 kmh 29.93 in1013.5 mb 0.00 in0.0 mm 0.00 in0.0 mm 0.00 in0.0 mm
01:42 PM 87.9°F31.1°C 75.9°F24.4°C 67% 1.6 mph S2.6 kmh S 5.0 mph8.0 kmh 29.93 in1013.5 mb 0.00 in0.0 mm 0.00 in0.0 mm 0.00 in0.0 mm
01:47 PM 87.5°F30.8°C 76.3°F24.6°C 69% 1.7 mph S2.7 kmh S 6.0 mph9.7 kmh 29.93 in1013.5 mb 0.00 in0.0 mm 0.00 in0.0 mm 0.00 in0.0 mm
01:52 PM 87.0°F30.6°C 75.4°F24.1°C 68% 1.8 mph SW2.9 kmh SW 6.0 mph9.7 kmh 29.93 in1013.5 mb 0.00 in0.0 mm 0.00 in0.0 mm 0.00 in0.0 mm
01:57 PM 86.7°F30.4°C 76.2°F24.6°C 71% 2.8 mph SW4.5 kmh SW 7.0 mph11.3 kmh 29.93 in1013.5 mb 0.00 in0.0 mm 0.00 in0.0 mm 0.00 in0.0 mm
02:02 PM 87.2°F30.7°C 75.3°F24.1°C 68% 3.3 mph SW5.3 kmh SW 7.0 mph11.3 kmh 29.92 in1013.2 mb 0.00 in0.0 mm 0.00 in0.0 mm 0.00 in0.0 mm
02:07 PM 87.0°F30.6°C 75.9°F24.4°C 69% 2.5 mph SW4.0 kmh SW 7.0 mph11.3 kmh 29.92 in1013.2 mb 0.00 in0.0 mm 0.00 in0.0 mm 0.00 in0.0 mm
02:12 PM 86.3°F30.2°C 76.2°F24.6°C 72% 3.0 mph WSW4.8 kmh WSW 7.0 mph11.3 kmh 29.92 in1013.2 mb 0.00 in0.0 mm 0.00 in0.0 mm 0.00 in0.0 mm
02:17 PM 86.4°F30.2°C 75.3°F24.1°C 69% 3.5 mph WSW5.6 kmh WSW 9.0 mph14.5 kmh 29.92 in1013.2 mb 0.00 in0.0 mm 0.00 in0.0 mm 0.00 in0.0 mm
02:22 PM 87.1°F30.6°C 76.4°F24.7°C 70% 3.6 mph SW5.8 kmh SW 9.0 mph14.5 kmh 29.92 in1013.2 mb 0.00 in0.0 mm 0.00 in0.0 mm 0.00 in0.0 mm
02:27 PM 87.6°F30.9°C 76.4°F24.7°C 69% 1.8 mph SSE2.9 kmh SSE 10.0 mph16.1 kmh 29.91 in1012.9 mb 0.00 in0.0 mm 0.00 in0.0 mm 0.00 in0.0 mm
02:32 PM 87.8°F31.0°C 75.3°F24.1°C 66% 5.0 mph SW8.0 kmh SW 10.0 mph16.1 kmh 29.92 in1013.2 mb 0.00 in0.0 mm 0.00 in0.0 mm 0.00 in0.0 mm
02:37 PM 87.5°F30.8°C 75.0°F23.9°C 66% 3.6 mph SW5.8 kmh SW 10.0 mph16.1 kmh 29.92 in1013.2 mb 0.00 in0.0 mm 0.00 in0.0 mm 0.00 in0.0 mm
02:42 PM 87.9°F31.1°C 75.0°F23.9°C 65% 3.2 mph SW5.1 kmh SW 10.0 mph16.1 kmh 29.91 in1012.9 mb 0.00 in0.0 mm 0.00 in0.0 mm 0.00 in0.0 mm
02:47 PM 88.3°F31.3°C 74.9°F23.8°C 64% 2.0 mph WSW3.2 kmh WSW 9.0 mph14.5 kmh 29.91 in1012.9 mb 0.00 in0.0 mm 0.00 in0.0 mm 0.00 in0.0 mm
02:52 PM 88.5°F31.4°C 75.1°F23.9°C 64% 3.7 mph SW6.0 kmh SW 9.0 mph14.5 kmh 29.91 in1012.9 mb 0.00 in0.0 mm 0.00 in0.0 mm 0.00 in0.0 mm
02:57 PM 88.2°F31.2°C 74.8°F23.8°C 64% 1.3 mph S2.1 kmh S 8.0 mph12.9 kmh 29.90 in1012.5 mb 0.00 in0.0 mm 0.00 in0.0 mm 0.00 in0.0 mm
03:02 PM 88.7°F31.5°C 75.3°F24.1°C 64% 2.1 mph S3.4 kmh S 8.0 mph12.9 kmh 29.90 in1012.5 mb 0.00 in0.0 mm 0.00 in0.0 mm 0.00 in0.0 mm
03:07 PM 89.0°F31.7°C 75.5°F24.2°C 64% 2.5 mph SE4.0 kmh SE 8.0 mph12.9 kmh 29.89 in1012.2 mb 0.00 in0.0 mm 0.00 in0.0 mm 0.00 in0.0 mm
03:12 PM 89.3°F31.8°C 74.9°F23.8°C 62% 2.2 mph SW3.5 kmh SW 7.0 mph11.3 kmh 29.89 in1012.2 mb 0.00 in0.0 mm 0.00 in0.0 mm 0.00 in0.0 mm
03:17 PM 89.4°F31.9°C 75.0°F23.9°C 62% 1.3 mph S2.1 kmh S 7.0 mph11.3 kmh 29.89 in1012.2 mb 0.00 in0.0 mm 0.00 in0.0 mm 0.00 in0.0 mm
03:22 PM 89.8°F32.1°C 76.8°F24.9°C 65% 1.4 mph SW2.3 kmh SW 7.0 mph11.3 kmh 29.89 in1012.2 mb 0.00 in0.0 mm 0.00 in0.0 mm 0.00 in0.0 mm
03:27 PM 90.0°F32.2°C 76.2°F24.6°C 64% 2.1 mph SW3.4 kmh SW 7.0 mph11.3 kmh 29.89 in1012.2 mb 0.00 in0.0 mm 0.00 in0.0 mm 0.00 in0.0 mm
03:32 PM 90.2°F32.3°C 76.2°F24.6°C 63% 1.0 mph WSW1.6 kmh WSW 7.0 mph11.3 kmh 29.89 in1012.2 mb 0.00 in0.0 mm 0.00 in0.0 mm 0.00 in0.0 mm
03:37 PM 89.9°F32.2°C 73.9°F23.3°C 59% 1.9 mph SSW3.1 kmh SSW 5.0 mph8.0 kmh 29.89 in1012.2 mb 0.00 in0.0 mm 0.00 in0.0 mm 0.00 in0.0 mm
03:42 PM 89.5°F31.9°C 74.6°F23.7°C 61% 1.5 mph SW2.4 kmh SW 7.0 mph11.3 kmh 29.89 in1012.2 mb 0.00 in0.0 mm 0.00 in0.0 mm 0.00 in0.0 mm
03:46 PM 89.5°F31.9°C 74.6°F23.7°C 61% 2.9 mph SW4.7 kmh SW 7.0 mph11.3 kmh 29.89 in1012.2 mb 0.00 in0.0 mm 0.00 in0.0 mm 0.00 in0.0 mm
03:51 PM 89.1°F31.7°C 75.2°F24.0°C 63% 3.2 mph ESE5.1 kmh ESE 7.0 mph11.3 kmh 29.88 in1011.9 mb 0.00 in0.0 mm 0.00 in0.0 mm 0.00 in0.0 mm
03:56 PM 88.7°F31.5°C 75.0°F23.9°C 64% 2.5 mph SE4.0 kmh SE 9.0 mph14.5 kmh 29.88 in1011.9 mb 0.00 in0.0 mm 0.00 in0.0 mm 0.00 in0.0 mm
04:01 PM 89.0°F31.7°C 75.2°F24.0°C 64% 1.7 mph SE2.7 kmh SE 9.0 mph14.5 kmh 29.88 in1011.9 mb 0.00 in0.0 mm 0.00 in0.0 mm 0.00 in0.0 mm
04:06 PM 89.0°F31.7°C 75.5°F24.2°C 64% 1.7 mph ESE2.7 kmh ESE 9.0 mph14.5 kmh 29.88 in1011.9 mb 0.00 in0.0 mm 0.00 in0.0 mm 0.00 in0.0 mm
04:11 PM 88.8°F31.6°C 75.3°F24.1°C 64% 1.7 mph SSE2.7 kmh SSE 9.0 mph14.5 kmh 29.88 in1011.9 mb 0.00 in0.0 mm 0.00 in0.0 mm 0.00 in0.0 mm
04:16 PM 89.3°F31.8°C 76.3°F24.6°C 65% 1.6 mph SE2.6 kmh SE 5.0 mph8.0 kmh 29.87 in1011.5 mb 0.00 in0.0 mm 0.00 in0.0 mm 0.00 in0.0 mm
04:21 PM 89.7°F32.1°C 75.3°F24.1°C 62% 2.2 mph SSW3.5 kmh SSW 5.0 mph8.0 kmh 29.87 in1011.5 mb 0.00 in0.0 mm 0.00 in0.0 mm 0.00 in0.0 mm
04:26 PM 89.9°F32.2°C 73.9°F23.3°C 59% 2.5 mph SE4.0 kmh SE 6.0 mph9.7 kmh 29.87 in1011.5 mb 0.00 in0.0 mm 0.00 in0.0 mm 0.00 in0.0 mm
04:31 PM 89.8°F32.1°C 74.9°F23.8°C 61% 1.0 mph ESE1.6 kmh ESE 6.0 mph9.7 kmh 29.87 in1011.5 mb 0.00 in0.0 mm 0.00 in0.0 mm 0.00 in0.0 mm
04:36 PM 90.0°F32.2°C 75.5°F24.2°C 62% 1.5 mph SW2.4 kmh SW 6.0 mph9.7 kmh 29.87 in1011.5 mb 0.00 in0.0 mm 0.00 in0.0 mm 0.00 in0.0 mm
04:41 PM 90.2°F32.3°C 76.2°F24.6°C 63% 1.3 mph SW2.1 kmh SW 6.0 mph9.7 kmh 29.87 in1011.5 mb 0.00 in0.0 mm 0.00 in0.0 mm 0.00 in0.0 mm
04:46 PM 90.1°F32.3°C 74.6°F23.7°C 60% 1.8 mph SW2.9 kmh SW 6.0 mph9.7 kmh 29.87 in1011.5 mb 0.00 in0.0 mm 0.00 in0.0 mm 0.00 in0.0 mm
04:51 PM 90.2°F32.3°C 74.7°F23.7°C 60% 2.2 mph SW3.5 kmh SW 6.0 mph9.7 kmh 29.87 in1011.5 mb 0.00 in0.0 mm 0.00 in0.0 mm 0.00 in0.0 mm
04:56 PM 90.3°F32.4°C 75.0°F23.9°C 61% 2.1 mph SW3.4 kmh SW 6.0 mph9.7 kmh 29.86 in1011.2 mb 0.00 in0.0 mm 0.00 in0.0 mm 0.00 in0.0 mm
05:01 PM 90.3°F32.4°C 75.3°F24.1°C 61% 1.9 mph WSW3.1 kmh WSW 6.0 mph9.7 kmh 29.86 in1011.2 mb 0.00 in0.0 mm 0.00 in0.0 mm 0.00 in0.0 mm
05:06 PM 90.4°F32.4°C 74.9°F23.8°C 60% 1.7 mph SSE2.7 kmh SSE 6.0 mph9.7 kmh 29.86 in1011.2 mb 0.00 in0.0 mm 0.00 in0.0 mm 0.00 in0.0 mm
05:11 PM 90.6°F32.6°C 74.3°F23.5°C 59% 2.8 mph SW4.5 kmh SW 6.0 mph9.7 kmh 29.86 in1011.2 mb 0.00 in0.0 mm 0.00 in0.0 mm 0.00 in0.0 mm
05:16 PM 90.8°F32.7°C 75.3°F24.1°C 60% 1.0 mph W1.6 kmh W 6.0 mph9.7 kmh 29.86 in1011.2 mb 0.00 in0.0 mm 0.00 in0.0 mm 0.00 in0.0 mm
05:21 PM 90.2°F32.3°C 74.7°F23.7°C 60% 3.4 mph SW5.5 kmh SW 8.0 mph12.9 kmh 29.86 in1011.2 mb 0.00 in0.0 mm 0.00 in0.0 mm 0.00 in0.0 mm
05:26 PM 89.7°F32.1°C 74.9°F23.8°C 62% 2.5 mph SW4.0 kmh SW 8.0 mph12.9 kmh 29.86 in1011.2 mb 0.00 in0.0 mm 0.00 in0.0 mm 0.00 in0.0 mm
05:31 PM 89.7°F32.1°C 75.3°F24.1°C 62% 2.8 mph SW4.5 kmh SW 8.0 mph12.9 kmh 29.86 in1011.2 mb 0.00 in0.0 mm 0.00 in0.0 mm 0.00 in0.0 mm
05:36 PM 89.3°F31.8°C 75.4°F24.1°C 63% 2.3 mph SSW3.7 kmh SSW 8.0 mph12.9 kmh 29.86 in1011.2 mb 0.00 in0.0 mm 0.00 in0.0 mm 0.00 in0.0 mm
05:41 PM 89.4°F31.9°C 75.4°F24.1°C 63% 1.6 mph SW2.6 kmh SW 7.0 mph11.3 kmh 29.86 in1011.2 mb 0.00 in0.0 mm 0.00 in0.0 mm 0.00 in0.0 mm
05:46 PM 89.7°F32.1°C 75.7°F24.3°C 63% 1.2 mph SW1.9 kmh SW 7.0 mph11.3 kmh 29.86 in1011.2 mb 0.00 in0.0 mm 0.00 in0.0 mm 0.00 in0.0 mm
05:51 PM 89.3°F31.8°C 75.5°F24.2°C 64% 2.7 mph SW4.3 kmh SW 7.0 mph11.3 kmh 29.86 in1011.2 mb 0.00 in0.0 mm 0.00 in0.0 mm 0.00 in0.0 mm
05:56 PM 89.3°F31.8°C 75.8°F24.3°C 64% 1.5 mph WSW2.4 kmh WSW 6.0 mph9.7 kmh 29.86 in1011.2 mb 0.00 in0.0 mm 0.00 in0.0 mm 0.00 in0.0 mm
06:01 PM 89.9°F32.2°C 75.4°F24.1°C 62% 1.3 mph S2.1 kmh S 6.0 mph9.7 kmh 29.85 in1010.8 mb 0.00 in0.0 mm 0.00 in0.0 mm 0.00 in0.0 mm
06:06 PM 90.4°F32.4°C 75.9°F24.4°C 62% 1.0 mph SW1.6 kmh SW 5.0 mph8.0 kmh 29.85 in1010.8 mb 0.00 in0.0 mm 0.00 in0.0 mm 0.00 in0.0 mm
06:11 PM 91.0°F32.8°C 76.5°F24.7°C 62% 1.1 mph SW1.8 kmh SW 3.0 mph4.8 kmh 29.85 in1010.8 mb 0.00 in0.0 mm 0.00 in0.0 mm 0.00 in0.0 mm
06:16 PM 90.6°F32.6°C 75.3°F24.1°C 61% 1.4 mph SW2.3 kmh SW 4.0 mph6.4 kmh 29.86 in1011.2 mb 0.00 in0.0 mm 0.00 in0.0 mm 0.00 in0.0 mm
06:21 PM 90.5°F32.5°C 76.7°F24.8°C 64% 1.3 mph SW2.1 kmh SW 4.0 mph6.4 kmh 29.86 in1011.2 mb 0.00 in0.0 mm 0.00 in0.0 mm 0.00 in0.0 mm
06:26 PM 90.4°F32.4°C 75.9°F24.4°C 62% 1.1 mph SSE1.8 kmh SSE 4.0 mph6.4 kmh 29.86 in1011.2 mb 0.00 in0.0 mm 0.00 in0.0 mm 0.00 in0.0 mm
06:31 PM 89.7°F32.1°C 75.7°F24.3°C 63% 5.3 mph SSE8.5 kmh SSE 13.0 mph20.9 kmh 29.86 in1011.2 mb 0.00 in0.0 mm 0.00 in0.0 mm 0.00 in0.0 mm
06:36 PM 88.1°F31.2°C 76.0°F24.4°C 67% 3.7 mph SSE6.0 kmh SSE 13.0 mph20.9 kmh 29.86 in1011.2 mb 0.00 in0.0 mm 0.00 in0.0 mm 0.00 in0.0 mm
06:41 PM 87.2°F30.7°C 75.8°F24.3°C 69% 1.7 mph S2.7 kmh S 13.0 mph20.9 kmh 29.86 in1011.2 mb 0.00 in0.0 mm 0.00 in0.0 mm 0.00 in0.0 mm
06:46 PM 86.6°F30.3°C 75.5°F24.2°C 69% 1.7 mph S2.7 kmh S 13.0 mph20.9 kmh 29.86 in1011.2 mb 0.00 in0.0 mm 0.00 in0.0 mm 0.00 in0.0 mm
06:51 PM 86.2°F30.1°C 75.5°F24.2°C 70% 1.9 mph S3.1 kmh S 10.0 mph16.1 kmh 29.85 in1010.8 mb 0.00 in0.0 mm 0.00 in0.0 mm 0.00 in0.0 mm
06:56 PM 86.1°F30.1°C 75.4°F24.1°C 70% Calm Calm 8.0 mph12.9 kmh 29.85 in1010.8 mb 0.00 in0.0 mm 0.00 in0.0 mm 0.00 in0.0 mm
07:01 PM 86.5°F30.3°C 75.8°F24.3°C 70% 2.3 mph SW3.7 kmh SW 8.0 mph12.9 kmh 29.85 in1010.8 mb 0.00 in0.0 mm 0.00 in0.0 mm 0.00 in0.0 mm
07:06 PM 86.7°F30.4°C 75.7°F24.3°C 70% 1.5 mph S2.4 kmh S 9.0 mph14.5 kmh 29.85 in1010.8 mb 0.00 in0.0 mm 0.00 in0.0 mm 0.00 in0.0 mm
07:11 PM 86.4°F30.2°C 75.7°F24.3°C 70% 1.4 mph S2.3 kmh S 9.0 mph14.5 kmh 29.85 in1010.8 mb 0.00 in0.0 mm 0.00 in0.0 mm 0.00 in0.0 mm
07:16 PM 86.2°F30.1°C 75.9°F24.4°C 71% 1.5 mph S2.4 kmh S 9.0 mph14.5 kmh 29.85 in1010.8 mb 0.00 in0.0 mm 0.00 in0.0 mm 0.00 in0.0 mm
07:21 PM 85.9°F29.9°C 75.4°F24.1°C 71% 1.4 mph SE2.3 kmh SE 9.0 mph14.5 kmh 29.86 in1011.2 mb 0.00 in0.0 mm 0.00 in0.0 mm 0.00 in0.0 mm
07:26 PM 85.4°F29.7°C 75.2°F24.0°C 71% 2.5 mph SSW4.0 kmh SSW 5.0 mph8.0 kmh 29.86 in1011.2 mb 0.00 in0.0 mm 0.00 in0.0 mm 0.00 in0.0 mm
07:31 PM 85.1°F29.5°C 75.3°F24.1°C 72% Calm Calm 5.0 mph8.0 kmh 29.87 in1011.5 mb 0.00 in0.0 mm 0.00 in0.0 mm 0.00 in0.0 mm
07:36 PM 84.9°F29.4°C 75.1°F23.9°C 72% 2.7 mph SW4.3 kmh SW 5.0 mph8.0 kmh 29.86 in1011.2 mb 0.00 in0.0 mm 0.00 in0.0 mm 0.00 in0.0 mm
07:41 PM 84.8°F29.3°C 75.4°F24.1°C 73% 1.0 mph SW1.6 kmh SW 5.0 mph8.0 kmh 29.86 in1011.2 mb 0.00 in0.0 mm 0.00 in0.0 mm 0.00 in0.0 mm
07:46 PM 84.5°F29.2°C 74.5°F23.6°C 72% 1.9 mph S3.1 kmh S 5.0 mph8.0 kmh 29.87 in1011.5 mb 0.00 in0.0 mm 0.00 in0.0 mm 0.00 in0.0 mm
07:51 PM 84.3°F29.1°C 74.5°F23.6°C 72% 2.7 mph SW4.3 kmh SW 6.0 mph9.7 kmh 29.87 in1011.5 mb 0.00 in0.0 mm 0.00 in0.0 mm 0.00 in0.0 mm
07:56 PM 84.1°F28.9°C 74.7°F23.7°C 73% 2.2 mph SW3.5 kmh SW 7.0 mph11.3 kmh 29.87 in1011.5 mb 0.00 in0.0 mm 0.00 in0.0 mm 0.00 in0.0 mm
08:01 PM 83.9°F28.8°C 74.9°F23.8°C 74% 3.6 mph SW5.8 kmh SW 10.0 mph16.1 kmh 29.87 in1011.5 mb 0.00 in0.0 mm 0.00 in0.0 mm 0.00 in0.0 mm
08:06 PM 83.7°F28.7°C 74.9°F23.8°C 75% 2.8 mph SW4.5 kmh SW 10.0 mph16.1 kmh 29.87 in1011.5 mb 0.00 in0.0 mm 0.00 in0.0 mm 0.00 in0.0 mm
08:11 PM 83.4°F28.6°C 75.2°F24.0°C 76% 3.1 mph SW5.0 kmh SW 10.0 mph16.1 kmh 29.87 in1011.5 mb 0.00 in0.0 mm 0.00 in0.0 mm 0.00 in0.0 mm
08:16 PM 83.2°F28.4°C 75.0°F23.9°C 76% 1.0 mph SSW1.6 kmh SSW 10.0 mph16.1 kmh 29.87 in1011.5 mb 0.00 in0.0 mm 0.00 in0.0 mm 0.00 in0.0 mm
08:21 PM 83.0°F28.3°C 75.2°F24.0°C 77% 2.6 mph SW4.2 kmh SW 7.0 mph11.3 kmh 29.87 in1011.5 mb 0.00 in0.0 mm 0.00 in0.0 mm 0.00 in0.0 mm
08:26 PM 82.8°F28.2°C 74.6°F23.7°C 76% 3.3 mph SSW5.3 kmh SSW 7.0 mph11.3 kmh 29.87 in1011.5 mb 0.00 in0.0 mm 0.00 in0.0 mm 0.00 in0.0 mm
08:31 PM 82.6°F28.1°C 74.4°F23.6°C 76% 2.7 mph SSW4.3 kmh SSW 8.0 mph12.9 kmh 29.87 in1011.5 mb 0.00 in0.0 mm 0.00 in0.0 mm 0.00 in0.0 mm
08:36 PM 82.4°F28.0°C 74.2°F23.4°C 76% 1.9 mph SSW3.1 kmh SSW 8.0 mph12.9 kmh 29.87 in1011.5 mb 0.00 in0.0 mm 0.00 in0.0 mm 0.00 in0.0 mm
08:41 PM 82.1°F27.8°C 74.3°F23.5°C 77% 1.9 mph SW3.1 kmh SW 8.0 mph12.9 kmh 29.88 in1011.9 mb 0.00 in0.0 mm 0.00 in0.0 mm 0.00 in0.0 mm
08:45 PM 81.9°F27.7°C 74.1°F23.4°C 77% 1.0 mph SSE1.6 kmh SSE 8.0 mph12.9 kmh 29.88 in1011.9 mb 0.00 in0.0 mm 0.00 in0.0 mm 0.00 in0.0 mm
08:50 PM 81.6°F27.6°C 73.8°F23.2°C 77% 2.4 mph SW3.9 kmh SW 8.0 mph12.9 kmh 29.88 in1011.9 mb 0.00 in0.0 mm 0.00 in0.0 mm 0.00 in0.0 mm
08:55 PM 81.4°F27.4°C 73.7°F23.2°C 77% 2.7 mph SW4.3 kmh SW 7.0 mph11.3 kmh 29.88 in1011.9 mb 0.00 in0.0 mm 0.00 in0.0 mm 0.00 in0.0 mm
09:00 PM 81.2°F27.3°C 73.7°F23.2°C 78% 1.7 mph SW2.7 kmh SW 7.0 mph11.3 kmh 29.88 in1011.9 mb 0.00 in0.0 mm 0.00 in0.0 mm 0.00 in0.0 mm
09:05 PM 81.0°F27.2°C 73.6°F23.1°C 78% 1.8 mph SW2.9 kmh SW 7.0 mph11.3 kmh 29.88 in1011.9 mb 0.00 in0.0 mm 0.00 in0.0 mm 0.00 in0.0 mm
09:10 PM 80.8°F27.1°C 73.4°F23.0°C 78% 1.4 mph S2.3 kmh S 7.0 mph11.3 kmh 29.89 in1012.2 mb 0.00 in0.0 mm 0.00 in0.0 mm 0.00 in0.0 mm
09:15 PM 80.6°F27.0°C 73.5°F23.1°C 79% 1.8 mph SSW2.9 kmh SSW 6.0 mph9.7 kmh 29.89 in1012.2 mb 0.00 in0.0 mm 0.00 in0.0 mm 0.00 in0.0 mm
09:20 PM 80.3°F26.8°C 73.3°F22.9°C 79% 2.6 mph SW4.2 kmh SW 9.0 mph14.5 kmh 29.89 in1012.2 mb 0.00 in0.0 mm 0.00 in0.0 mm 0.00 in0.0 mm
09:25 PM 80.1°F26.7°C 73.5°F23.1°C 80% 1.0 mph SW1.6 kmh SW 9.0 mph14.5 kmh 29.89 in1012.2 mb 0.00 in0.0 mm 0.00 in0.0 mm 0.00 in0.0 mm
09:30 PM 80.0°F26.7°C 73.4°F23.0°C 80% 1.7 mph SSW2.7 kmh SSW 9.0 mph14.5 kmh 29.89 in1012.2 mb 0.00 in0.0 mm 0.00 in0.0 mm 0.00 in0.0 mm
09:35 PM 79.8°F26.6°C 73.4°F23.0°C 81% 2.2 mph SW3.5 kmh SW 9.0 mph14.5 kmh 29.89 in1012.2 mb 0.00 in0.0 mm 0.00 in0.0 mm 0.00 in0.0 mm
09:40 PM 79.6°F26.4°C 73.4°F23.0°C 81% 1.0 mph SE1.6 kmh SE 4.0 mph6.4 kmh 29.90 in1012.5 mb 0.00 in0.0 mm 0.00 in0.0 mm 0.00 in0.0 mm
09:45 PM 79.5°F26.4°C 73.5°F23.1°C 82% 1.0 mph SW1.6 kmh SW 4.0 mph6.4 kmh 29.90 in1012.5 mb 0.00 in0.0 mm 0.00 in0.0 mm 0.00 in0.0 mm
09:50 PM 79.3°F26.3°C 73.8°F23.2°C 83% Calm Calm 4.0 mph6.4 kmh 29.90 in1012.5 mb 0.00 in0.0 mm 0.00 in0.0 mm 0.00 in0.0 mm
09:55 PM 79.1°F26.2°C 73.6°F23.1°C 83% 1.0 mph SSW1.6 kmh SSW 4.0 mph6.4 kmh 29.90 in1012.5 mb 0.00 in0.0 mm 0.00 in0.0 mm 0.00 in0.0 mm
10:00 PM 78.9°F26.1°C 73.7°F23.2°C 84% 1.3 mph SSW2.1 kmh SSW 4.0 mph6.4 kmh 29.90 in1012.5 mb 0.00 in0.0 mm 0.00 in0.0 mm 0.00 in0.0 mm
10:05 PM 78.8°F26.0°C 73.6°F23.1°C 84% 1.1 mph SSW1.8 kmh SSW 4.0 mph6.4 kmh 29.90 in1012.5 mb 0.00 in0.0 mm 0.00 in0.0 mm 0.00 in0.0 mm
10:10 PM 78.7°F25.9°C 73.5°F23.1°C 84% 1.0 mph SW1.6 kmh SW 4.0 mph6.4 kmh 29.90 in1012.5 mb 0.00 in0.0 mm 0.00 in0.0 mm 0.00 in0.0 mm
10:15 PM 78.6°F25.9°C 73.8°F23.2°C 85% 1.5 mph SW2.4 kmh SW 4.0 mph6.4 kmh 29.91 in1012.9 mb 0.00 in0.0 mm 0.00 in0.0 mm 0.00 in0.0 mm
10:20 PM 78.6°F25.9°C 73.8°F23.2°C 85% 1.7 mph SW2.7 kmh SW 4.0 mph6.4 kmh 29.91 in1012.9 mb 0.00 in0.0 mm 0.00 in0.0 mm 0.00 in0.0 mm
10:25 PM 78.5°F25.8°C 73.7°F23.2°C 85% Calm Calm 4.0 mph6.4 kmh 29.91 in1012.9 mb 0.00 in0.0 mm 0.00 in0.0 mm 0.00 in0.0 mm
10:30 PM 78.4°F25.8°C 73.5°F23.1°C 85% 1.0 mph SW1.6 kmh SW 4.0 mph6.4 kmh 29.91 in1012.9 mb 0.00 in0.0 mm 0.00 in0.0 mm 0.00 in0.0 mm
10:35 PM 78.3°F25.7°C 73.5°F23.1°C 85% Calm Calm 4.0 mph6.4 kmh 29.91 in1012.9 mb 0.00 in0.0 mm 0.00 in0.0 mm 0.00 in0.0 mm
10:40 PM 78.2°F25.7°C 73.4°F23.0°C 85% Calm Calm 1.0 mph1.6 kmh 29.91 in1012.9 mb 0.00 in0.0 mm 0.00 in0.0 mm 0.00 in0.0 mm
10:45 PM 78.1°F25.6°C 73.6°F23.1°C 86% Calm Calm 1.0 mph1.6 kmh 29.91 in1012.9 mb 0.00 in0.0 mm 0.00 in0.0 mm 0.00 in0.0 mm
10:50 PM 77.9°F25.5°C 73.4°F23.0°C 86% 1.0 mph SW1.6 kmh SW 1.0 mph1.6 kmh 29.90 in1012.5 mb 0.00 in0.0 mm 0.00 in0.0 mm 0.00 in0.0 mm
10:55 PM 77.8°F25.4°C 73.3°F22.9°C 86% 1.0 mph SW1.6 kmh SW 1.0 mph1.6 kmh 29.90 in1012.5 mb 0.00 in0.0 mm 0.00 in0.0 mm 0.00 in0.0 mm
11:00 PM 77.7°F25.4°C 73.5°F23.1°C 87% Calm Calm 1.0 mph1.6 kmh 29.90 in1012.5 mb 0.00 in0.0 mm 0.00 in0.0 mm 0.00 in0.0 mm
11:05 PM 77.7°F25.4°C 73.5°F23.1°C 87% Calm Calm 1.0 mph1.6 kmh 29.90 in1012.5 mb 0.00 in0.0 mm 0.00 in0.0 mm 0.00 in0.0 mm
11:10 PM 77.6°F25.3°C 73.4°F23.0°C 87% Calm Calm 1.0 mph1.6 kmh 29.90 in1012.5 mb 0.00 in0.0 mm 0.00 in0.0 mm 0.00 in0.0 mm
11:15 PM 77.6°F25.3°C 73.4°F23.0°C 87% 1.0 mph SW1.6 kmh SW 1.0 mph1.6 kmh 29.90 in1012.5 mb 0.00 in0.0 mm 0.00 in0.0 mm 0.00 in0.0 mm
11:20 PM 77.6°F25.3°C 73.4°F23.0°C 87% Calm Calm 1.0 mph1.6 kmh 29.90 in1012.5 mb 0.00 in0.0 mm 0.00 in0.0 mm 0.00 in0.0 mm
11:25 PM 77.5°F25.3°C 73.3°F22.9°C 87% 1.0 mph SW1.6 kmh SW 1.0 mph1.6 kmh 29.90 in1012.5 mb 0.00 in0.0 mm 0.00 in0.0 mm 0.00 in0.0 mm
11:30 PM 77.5°F25.3°C 73.3°F22.9°C 87% 1.0 mph SW1.6 kmh SW 1.0 mph1.6 kmh 29.90 in1012.5 mb 0.00 in0.0 mm 0.00 in0.0 mm 0.00 in0.0 mm
11:35 PM 77.4°F25.2°C 73.6°F23.1°C 88% 1.0 mph SW1.6 kmh SW 1.0 mph1.6 kmh 29.90 in1012.5 mb 0.00 in0.0 mm 0.00 in0.0 mm 0.00 in0.0 mm
11:40 PM 77.3°F25.2°C 73.5°F23.1°C 88% 1.0 mph WSW1.6 kmh WSW 1.0 mph1.6 kmh 29.90 in1012.5 mb 0.00 in0.0 mm 0.00 in0.0 mm 0.00 in0.0 mm
11:45 PM 77.2°F25.1°C 73.4°F23.0°C 88% 1.2 mph SW1.9 kmh SW 2.0 mph3.2 kmh 29.89 in1012.2 mb 0.00 in0.0 mm 0.00 in0.0 mm 0.00 in0.0 mm
11:50 PM 77.2°F25.1°C 73.4°F23.0°C 88% 1.0 mph SW1.6 kmh SW 2.0 mph3.2 kmh 29.89 in1012.2 mb 0.00 in0.0 mm 0.00 in0.0 mm 0.00 in0.0 mm
11:55 PM 77.1°F25.1°C 73.3°F22.9°C 88% Calm Calm 2.0 mph3.2 kmh 29.90 in1012.5 mb 0.00 in0.0 mm 0.00 in0.0 mm 0.00 in0.0 mm